LNR31AT EGGP-EGJJ
Flight info
| Callsign | LNR31AT |
|---|---|
| Flight time | 0h 57m |
| Altitude | 37000 |
| Route | NANTI L8 STAFA P18 TELBA L151 KIDLI UN859 CPT Y321 PEPIS/N0433F360 Q41 SAM N63 LELNA |
| Aircraft | A319/M-SDE3FGHIRWY/LB1 |
Departure
| Time | 2026-05-04 17:31 |
|---|---|
| Airport | Liverpool John Lennon Airport (EGGP) |
Arrival
| Time | 2026-05-04 18:28 |
|---|---|
| Airport | Jersey Airport (EGJJ) |
| Time | Latitude | Longitude | Altitude | Speed | Heading |
|---|---|---|---|---|---|
| 2026-05-04 17:07 | 53.33690 | -2.84956 | 87 ft | 0 kts | 85° |
| 2026-05-04 17:22 | 53.33690 | -2.84964 | 85 ft | 3 kts | 85° |
| 2026-05-04 17:23 | 53.33682 | -2.85085 | 90 ft | 4 kts | 107° |
| 2026-05-04 17:23 | 53.33680 | -2.85091 | 90 ft | 4 kts | 136° |
| 2026-05-04 17:23 | 53.33633 | -2.85071 | 85 ft | 1 kts | 175° |
| 2026-05-04 17:24 | 53.33632 | -2.85071 | 85 ft | 0 kts | 175° |
| 2026-05-04 17:26 | 53.33575 | -2.85063 | 85 ft | 6 kts | 175° |
| 2026-05-04 17:26 | 53.33539 | -2.84770 | 85 ft | 14 kts | 85° |
| 2026-05-04 17:27 | 53.33557 | -2.84383 | 75 ft | 19 kts | 86° |
| 2026-05-04 17:27 | 53.33577 | -2.83938 | 77 ft | 20 kts | 85° |
| 2026-05-04 17:28 | 53.33591 | -2.83629 | 83 ft | 8 kts | 85° |
| 2026-05-04 17:29 | 53.33594 | -2.83381 | 90 ft | 6 kts | 110° |
| 2026-05-04 17:29 | 53.33445 | -2.83312 | 82 ft | 8 kts | 231° |
| 2026-05-04 17:30 | 53.33311 | -2.86065 | 552 ft | 137 kts | 268° |
| 2026-05-04 17:31 | 53.33137 | -2.89402 | 1870 ft | 160 kts | 270° |
| 2026-05-04 17:31 | 53.31191 | -2.94998 | 3315 ft | 242 kts | 202° |
| 2026-05-04 17:32 | 53.27827 | -2.93873 | 3982 ft | 267 kts | 134° |
| 2026-05-04 17:33 | 53.26044 | -2.85156 | 4008 ft | 268 kts | 109° |
| 2026-05-04 17:33 | 53.25256 | -2.82337 | 4008 ft | 269 kts | 120° |
| 2026-05-04 17:34 | 53.21935 | -2.74823 | 4013 ft | 267 kts | 127° |
| 2026-05-04 17:34 | 53.20813 | -2.72347 | 4013 ft | 267 kts | 127° |
| 2026-05-04 17:35 | 53.17018 | -2.65666 | 4877 ft | 271 kts | 156° |
| 2026-05-04 17:35 | 53.13517 | -2.63237 | 7054 ft | 278 kts | 159° |
| 2026-05-04 17:35 | 53.11703 | -2.62011 | 8072 ft | 282 kts | 159° |
| 2026-05-04 17:36 | 53.09860 | -2.60767 | 9096 ft | 287 kts | 159° |
| 2026-05-04 17:36 | 53.08010 | -2.59518 | 10072 ft | 292 kts | 159° |
| 2026-05-04 17:36 | 53.06054 | -2.58200 | 10573 ft | 314 kts | 159° |
| 2026-05-04 17:36 | 53.03990 | -2.56812 | 11180 ft | 328 kts | 159° |
| 2026-05-04 17:37 | 53.01850 | -2.55377 | 12066 ft | 332 kts | 159° |
| 2026-05-04 17:37 | 52.99708 | -2.53947 | 12968 ft | 336 kts | 160° |
| 2026-05-04 17:37 | 52.97525 | -2.52491 | 13838 ft | 340 kts | 159° |
| 2026-05-04 17:37 | 52.95310 | -2.51008 | 14644 ft | 343 kts | 159° |
| 2026-05-04 17:38 | 52.93086 | -2.49520 | 15446 ft | 347 kts | 159° |
| 2026-05-04 17:38 | 52.90837 | -2.48018 | 16241 ft | 350 kts | 159° |
| 2026-05-04 17:38 | 52.88589 | -2.46521 | 17024 ft | 353 kts | 159° |
| 2026-05-04 17:38 | 52.86296 | -2.44997 | 17795 ft | 356 kts | 159° |
| 2026-05-04 17:39 | 52.81651 | -2.41921 | 18921 ft | 362 kts | 159° |
| 2026-05-04 17:39 | 52.79299 | -2.40364 | 19514 ft | 366 kts | 159° |
| 2026-05-04 17:39 | 52.76918 | -2.38786 | 20221 ft | 368 kts | 159° |
| 2026-05-04 17:40 | 52.74545 | -2.37212 | 20900 ft | 372 kts | 159° |
| 2026-05-04 17:40 | 52.72130 | -2.35612 | 21598 ft | 374 kts | 159° |
| 2026-05-04 17:40 | 52.69706 | -2.34010 | 22297 ft | 377 kts | 159° |
| 2026-05-04 17:40 | 52.67259 | -2.32373 | 22958 ft | 380 kts | 157° |
| 2026-05-04 17:41 | 52.64931 | -2.30228 | 23603 ft | 385 kts | 147° |
| 2026-05-04 17:41 | 52.62716 | -2.27792 | 24142 ft | 389 kts | 147° |
| 2026-05-04 17:41 | 52.60433 | -2.25285 | 24686 ft | 392 kts | 147° |
| 2026-05-04 17:41 | 52.58191 | -2.22823 | 25216 ft | 395 kts | 147° |
| 2026-05-04 17:42 | 52.55884 | -2.20292 | 25739 ft | 398 kts | 147° |
| 2026-05-04 17:42 | 52.53568 | -2.17759 | 26265 ft | 401 kts | 146° |
| 2026-05-04 17:42 | 52.51223 | -2.15204 | 26775 ft | 403 kts | 146° |
| 2026-05-04 17:42 | 52.48892 | -2.12670 | 27272 ft | 406 kts | 148° |
| 2026-05-04 17:43 | 52.46522 | -2.10101 | 27774 ft | 409 kts | 148° |
| 2026-05-04 17:43 | 52.44131 | -2.07512 | 28257 ft | 412 kts | 147° |
| 2026-05-04 17:43 | 52.42544 | -2.05795 | 28583 ft | 414 kts | 147° |
| 2026-05-04 17:43 | 52.39326 | -2.02312 | 29219 ft | 418 kts | 147° |
| 2026-05-04 17:44 | 52.37706 | -2.00554 | 29539 ft | 420 kts | 147° |
| 2026-05-04 17:44 | 52.34462 | -1.97037 | 30128 ft | 424 kts | 147° |
| 2026-05-04 17:44 | 52.32796 | -1.95236 | 30382 ft | 426 kts | 147° |
| 2026-05-04 17:44 | 52.30332 | -1.92577 | 30758 ft | 429 kts | 147° |
| 2026-05-04 17:45 | 52.27830 | -1.89883 | 31131 ft | 431 kts | 147° |
| 2026-05-04 17:45 | 52.25303 | -1.87169 | 31534 ft | 433 kts | 147° |
| 2026-05-04 17:45 | 52.22804 | -1.84488 | 31957 ft | 434 kts | 147° |
| 2026-05-04 17:45 | 52.20284 | -1.81793 | 32497 ft | 432 kts | 147° |
| 2026-05-04 17:46 | 52.17775 | -1.79114 | 33020 ft | 430 kts | 147° |
| 2026-05-04 17:46 | 52.15259 | -1.76431 | 33533 ft | 429 kts | 147° |
| 2026-05-04 17:46 | 52.12766 | -1.73770 | 34064 ft | 428 kts | 147° |
| 2026-05-04 17:46 | 52.10291 | -1.71127 | 34479 ft | 427 kts | 147° |
| 2026-05-04 17:47 | 52.07802 | -1.68475 | 34861 ft | 427 kts | 147° |
| 2026-05-04 17:47 | 52.05301 | -1.65812 | 35228 ft | 428 kts | 147° |
| 2026-05-04 17:47 | 52.02825 | -1.63177 | 35567 ft | 428 kts | 147° |
| 2026-05-04 17:47 | 52.00332 | -1.60527 | 35942 ft | 427 kts | 147° |
| 2026-05-04 17:48 | 51.97839 | -1.57885 | 36307 ft | 426 kts | 148° |
| 2026-05-04 17:48 | 51.95351 | -1.55253 | 36663 ft | 426 kts | 148° |
| 2026-05-04 17:48 | 51.92901 | -1.52667 | 36951 ft | 427 kts | 148° |
| 2026-05-04 17:48 | 51.90414 | -1.50055 | 37023 ft | 424 kts | 148° |
| 2026-05-04 17:49 | 51.85464 | -1.44876 | 37028 ft | 421 kts | 148° |
| 2026-05-04 17:49 | 51.80568 | -1.39746 | 37030 ft | 421 kts | 148° |
| 2026-05-04 17:50 | 51.75420 | -1.35275 | 37030 ft | 419 kts | 162° |
| 2026-05-04 17:50 | 51.69881 | -1.32466 | 37029 ft | 419 kts | 163° |
| 2026-05-04 17:51 | 51.64315 | -1.29641 | 37031 ft | 419 kts | 163° |
| 2026-05-04 17:51 | 51.58779 | -1.26824 | 37029 ft | 419 kts | 163° |
| 2026-05-04 17:52 | 51.53222 | -1.24014 | 37032 ft | 419 kts | 163° |
| 2026-05-04 17:52 | 51.47522 | -1.22185 | 37029 ft | 417 kts | 179° |
| 2026-05-04 17:53 | 51.41739 | -1.22589 | 37026 ft | 417 kts | 183° |
| 2026-05-04 17:53 | 51.35957 | -1.23058 | 37023 ft | 417 kts | 183° |
| 2026-05-04 17:54 | 51.30150 | -1.23514 | 37007 ft | 417 kts | 183° |
| 2026-05-04 17:54 | 51.24349 | -1.23977 | 37012 ft | 417 kts | 183° |
| 2026-05-04 17:55 | 51.18581 | -1.24843 | 37012 ft | 416 kts | 193° |
| 2026-05-04 17:55 | 51.12993 | -1.27184 | 37010 ft | 416 kts | 194° |
| 2026-05-04 17:56 | 51.07417 | -1.29530 | 37005 ft | 416 kts | 194° |
| 2026-05-04 17:56 | 51.01795 | -1.31884 | 37003 ft | 416 kts | 194° |
| 2026-05-04 17:57 | 50.96217 | -1.34277 | 37001 ft | 416 kts | 198° |
| 2026-05-04 17:57 | 50.90996 | -1.38136 | 37001 ft | 416 kts | 206° |
| 2026-05-04 17:58 | 50.85828 | -1.42263 | 37001 ft | 416 kts | 206° |
| 2026-05-04 17:58 | 50.80621 | -1.46401 | 36763 ft | 419 kts | 206° |
| 2026-05-04 17:59 | 50.78044 | -1.48447 | 36507 ft | 418 kts | 206° |
| 2026-05-04 17:59 | 50.75433 | -1.50517 | 36252 ft | 417 kts | 206° |
| 2026-05-04 17:59 | 50.70262 | -1.54610 | 35751 ft | 416 kts | 205° |
| 2026-05-04 18:00 | 50.67661 | -1.56664 | 35497 ft | 416 kts | 205° |
| 2026-05-04 18:00 | 50.65074 | -1.58706 | 35259 ft | 415 kts | 205° |
| 2026-05-04 18:00 | 50.62525 | -1.60717 | 35028 ft | 412 kts | 205° |
| 2026-05-04 18:00 | 50.59970 | -1.62735 | 34585 ft | 409 kts | 205° |
| 2026-05-04 18:01 | 50.57435 | -1.64736 | 34075 ft | 406 kts | 205° |
| 2026-05-04 18:01 | 50.54918 | -1.66721 | 33504 ft | 404 kts | 204° |
| 2026-05-04 18:01 | 50.52411 | -1.68692 | 33008 ft | 399 kts | 204° |
| 2026-05-04 18:02 | 50.47496 | -1.72553 | 32021 ft | 391 kts | 204° |
| 2026-05-04 18:02 | 50.45075 | -1.74444 | 31535 ft | 387 kts | 204° |
| 2026-05-04 18:02 | 50.42679 | -1.76312 | 31077 ft | 382 kts | 204° |
| 2026-05-04 18:02 | 50.40334 | -1.78143 | 30619 ft | 378 kts | 204° |
| 2026-05-04 18:03 | 50.37988 | -1.79972 | 30172 ft | 374 kts | 204° |
| 2026-05-04 18:03 | 50.35660 | -1.81783 | 29680 ft | 370 kts | 203° |
| 2026-05-04 18:03 | 50.33366 | -1.83568 | 29263 ft | 364 kts | 203° |
| 2026-05-04 18:03 | 50.31108 | -1.85324 | 28862 ft | 359 kts | 203° |
| 2026-05-04 18:04 | 50.28903 | -1.87033 | 28453 ft | 355 kts | 203° |
| 2026-05-04 18:04 | 50.26696 | -1.88745 | 28054 ft | 351 kts | 203° |
| 2026-05-04 18:04 | 50.22387 | -1.92079 | 27255 ft | 343 kts | 203° |
| 2026-05-04 18:05 | 50.20252 | -1.93732 | 26849 ft | 340 kts | 203° |
| 2026-05-04 18:05 | 50.18128 | -1.95374 | 26434 ft | 336 kts | 203° |
| 2026-05-04 18:05 | 50.16044 | -1.96982 | 26030 ft | 333 kts | 203° |
| 2026-05-04 18:05 | 50.13996 | -1.98561 | 25626 ft | 330 kts | 203° |
| 2026-05-04 18:06 | 50.09907 | -2.01709 | 24784 ft | 326 kts | 203° |
| 2026-05-04 18:06 | 50.07873 | -2.03269 | 24350 ft | 324 kts | 203° |
| 2026-05-04 18:06 | 50.05854 | -2.04818 | 23927 ft | 323 kts | 203° |
| 2026-05-04 18:07 | 50.03843 | -2.06360 | 23489 ft | 322 kts | 203° |
| 2026-05-04 18:07 | 50.01818 | -2.07912 | 23019 ft | 321 kts | 203° |
| 2026-05-04 18:07 | 49.99825 | -2.09437 | 22578 ft | 318 kts | 203° |
| 2026-05-04 18:07 | 49.97816 | -2.10737 | 22183 ft | 314 kts | 194° |
| 2026-05-04 18:08 | 49.95704 | -2.11518 | 21784 ft | 311 kts | 190° |
| 2026-05-04 18:08 | 49.93586 | -2.12233 | 21391 ft | 309 kts | 190° |
| 2026-05-04 18:08 | 49.91485 | -2.12952 | 21011 ft | 308 kts | 191° |
| 2026-05-04 18:08 | 49.89411 | -2.13666 | 20623 ft | 307 kts | 191° |
| 2026-05-04 18:09 | 49.85239 | -2.15092 | 19853 ft | 306 kts | 191° |
| 2026-05-04 18:09 | 49.81096 | -2.16500 | 19091 ft | 306 kts | 191° |
| 2026-05-04 18:10 | 49.79010 | -2.17210 | 18709 ft | 307 kts | 191° |
| 2026-05-04 18:10 | 49.76922 | -2.17922 | 18322 ft | 308 kts | 191° |
| 2026-05-04 18:10 | 49.74829 | -2.18635 | 17904 ft | 308 kts | 191° |
| 2026-05-04 18:10 | 49.72737 | -2.19346 | 17518 ft | 307 kts | 191° |
| 2026-05-04 18:11 | 49.70653 | -2.20060 | 17143 ft | 306 kts | 192° |
| 2026-05-04 18:11 | 49.68579 | -2.20886 | 16742 ft | 306 kts | 194° |
| 2026-05-04 18:11 | 49.66550 | -2.21789 | 16362 ft | 306 kts | 195° |
| 2026-05-04 18:11 | 49.64509 | -2.22735 | 15978 ft | 306 kts | 195° |
| 2026-05-04 18:12 | 49.62470 | -2.23684 | 15595 ft | 306 kts | 195° |
| 2026-05-04 18:12 | 49.60428 | -2.24624 | 15224 ft | 305 kts | 195° |
| 2026-05-04 18:12 | 49.58384 | -2.25553 | 14835 ft | 305 kts | 194° |
| 2026-05-04 18:12 | 49.56354 | -2.26462 | 14455 ft | 304 kts | 194° |
| 2026-05-04 18:13 | 49.54315 | -2.27366 | 14075 ft | 304 kts | 194° |
| 2026-05-04 18:13 | 49.52304 | -2.28255 | 13682 ft | 303 kts | 194° |
| 2026-05-04 18:13 | 49.48259 | -2.30049 | 12889 ft | 300 kts | 194° |
| 2026-05-04 18:14 | 49.46259 | -2.30938 | 12509 ft | 298 kts | 194° |
| 2026-05-04 18:14 | 49.44287 | -2.31810 | 12129 ft | 297 kts | 194° |
| 2026-05-04 18:14 | 49.42299 | -2.32687 | 11752 ft | 295 kts | 194° |
| 2026-05-04 18:15 | 49.38359 | -2.34423 | 10976 ft | 292 kts | 194° |
| 2026-05-04 18:15 | 49.34482 | -2.36133 | 10191 ft | 290 kts | 194° |
| 2026-05-04 18:15 | 49.32542 | -2.36987 | 9832 ft | 287 kts | 194° |
| 2026-05-04 18:16 | 49.30623 | -2.37830 | 9386 ft | 286 kts | 194° |
| 2026-05-04 18:16 | 49.28738 | -2.38657 | 8967 ft | 285 kts | 195° |
| 2026-05-04 18:16 | 49.26835 | -2.39491 | 8563 ft | 283 kts | 195° |
| 2026-05-04 18:17 | 49.23041 | -2.39839 | 7723 ft | 277 kts | 161° |
| 2026-05-04 18:17 | 49.21383 | -2.38378 | 7257 ft | 276 kts | 137° |
| 2026-05-04 18:17 | 49.19793 | -2.33206 | 6315 ft | 277 kts | 92° |
| 2026-05-04 18:18 | 49.19966 | -2.30263 | 5936 ft | 272 kts | 82° |
| 2026-05-04 18:18 | 49.20191 | -2.27454 | 5767 ft | 260 kts | 83° |
| 2026-05-04 18:18 | 49.20396 | -2.24766 | 5582 ft | 250 kts | 83° |
| 2026-05-04 18:18 | 49.20589 | -2.22182 | 5248 ft | 246 kts | 83° |
| 2026-05-04 18:19 | 49.19512 | -2.17430 | 4526 ft | 245 kts | 136° |
| 2026-05-04 18:19 | 49.18048 | -2.16181 | 4318 ft | 238 kts | 165° |
| 2026-05-04 18:19 | 49.16410 | -2.16108 | 4172 ft | 240 kts | 192° |
| 2026-05-04 18:20 | 49.14935 | -2.17186 | 4159 ft | 240 kts | 220° |
| 2026-05-04 18:20 | 49.13931 | -2.19204 | 4163 ft | 239 kts | 249° |
| 2026-05-04 18:20 | 49.13559 | -2.21662 | 4164 ft | 238 kts | 263° |
| 2026-05-04 18:20 | 49.13340 | -2.24164 | 4161 ft | 236 kts | 264° |
| 2026-05-04 18:21 | 49.13144 | -2.26619 | 4161 ft | 235 kts | 264° |
| 2026-05-04 18:21 | 49.12946 | -2.29117 | 4165 ft | 235 kts | 264° |
| 2026-05-04 18:21 | 49.12744 | -2.31599 | 4161 ft | 236 kts | 264° |
| 2026-05-04 18:21 | 49.12537 | -2.34085 | 4160 ft | 236 kts | 263° |
| 2026-05-04 18:22 | 49.12333 | -2.36536 | 4160 ft | 236 kts | 264° |
| 2026-05-04 18:22 | 49.12126 | -2.39028 | 4162 ft | 236 kts | 264° |
| 2026-05-04 18:22 | 49.11923 | -2.41517 | 4163 ft | 236 kts | 265° |
| 2026-05-04 18:22 | 49.12114 | -2.43987 | 4123 ft | 235 kts | 290° |
| 2026-05-04 18:23 | 49.12983 | -2.46010 | 3986 ft | 231 kts | 318° |
| 2026-05-04 18:23 | 49.14353 | -2.47249 | 3756 ft | 229 kts | 344° |
| 2026-05-04 18:23 | 49.15926 | -2.47420 | 3454 ft | 226 kts | 10° |
| 2026-05-04 18:23 | 49.17371 | -2.46535 | 3155 ft | 224 kts | 36° |
| 2026-05-04 18:24 | 49.18390 | -2.44846 | 2984 ft | 215 kts | 60° |
| 2026-05-04 18:24 | 49.18864 | -2.42742 | 2851 ft | 206 kts | 79° |
| 2026-05-04 18:24 | 49.19056 | -2.40613 | 2741 ft | 196 kts | 84° |
| 2026-05-04 18:24 | 49.19200 | -2.38583 | 2646 ft | 188 kts | 83° |
| 2026-05-04 18:25 | 49.19359 | -2.36612 | 2394 ft | 184 kts | 82° |
| 2026-05-04 18:25 | 49.19519 | -2.34708 | 2151 ft | 180 kts | 81° |
| 2026-05-04 18:25 | 49.19678 | -2.32825 | 1912 ft | 176 kts | 82° |
| 2026-05-04 18:25 | 49.19832 | -2.31011 | 1667 ft | 167 kts | 81° |
| 2026-05-04 18:26 | 49.19982 | -2.29300 | 1458 ft | 154 kts | 81° |
| 2026-05-04 18:26 | 49.20107 | -2.27783 | 1236 ft | 136 kts | 81° |
| 2026-05-04 18:26 | 49.20220 | -2.26412 | 1042 ft | 125 kts | 79° |
| 2026-05-04 18:26 | 49.20336 | -2.25109 | 884 ft | 124 kts | 79° |
| 2026-05-04 18:27 | 49.20444 | -2.23796 | 745 ft | 123 kts | 79° |
| 2026-05-04 18:27 | 49.20554 | -2.22502 | 563 ft | 124 kts | 80° |
| 2026-05-04 18:27 | 49.20660 | -2.21200 | 412 ft | 128 kts | 79° |
| 2026-05-04 18:27 | 49.20772 | -2.19873 | 287 ft | 114 kts | 82° |
| 2026-05-04 18:28 | 49.20839 | -2.19044 | 285 ft | 35 kts | 82° |
| 2026-05-04 18:28 | 49.20868 | -2.18722 | 283 ft | 29 kts | 82° |
| 2026-05-04 18:28 | 49.20888 | -2.18483 | 281 ft | 15 kts | 86° |
| 2026-05-04 18:28 | 49.20838 | -2.18380 | 283 ft | 12 kts | 166° |
| 2026-05-04 18:29 | 49.20764 | -2.18421 | 284 ft | 12 kts | 218° |
| 2026-05-04 18:29 | 49.20730 | -2.18540 | 284 ft | 14 kts | 263° |
| 2026-05-04 18:29 | 49.20717 | -2.18710 | 284 ft | 17 kts | 263° |
| 2026-05-04 18:29 | 49.20703 | -2.18894 | 284 ft | 18 kts | 261° |
| 2026-05-04 18:30 | 49.20690 | -2.19264 | 284 ft | 14 kts | 285° |
| 2026-05-04 18:30 | 49.20706 | -2.19361 | 288 ft | 12 kts | 282° |
| 2026-05-04 18:30 | 49.20704 | -2.19489 | 284 ft | 11 kts | 260° |
| 2026-05-04 18:31 | 49.20687 | -2.19604 | 287 ft | 12 kts | 248° |
| 2026-05-04 18:31 | 49.20643 | -2.19665 | 284 ft | 8 kts | 202° |
| 2026-05-04 18:31 | 49.20595 | -2.19657 | 284 ft | 6 kts | 158° |
| 2026-05-04 18:31 | 49.20566 | -2.19640 | 284 ft | 2 kts | 159° |
| 2026-05-04 18:32 | 49.20561 | -2.19637 | 284 ft | 0 kts | 159° |